createdAt,value
2022-12-06T00:04:04.347Z,83.54
2022-12-06T00:08:07.392Z,83.90
2022-12-06T00:12:10.704Z,84.31
2022-12-06T00:16:18.429Z,84.12
2022-12-06T00:20:21.506Z,84.17
2022-12-06T00:24:25.066Z,84.28
2022-12-06T00:28:28.002Z,83.98
2022-12-06T00:32:32.382Z,83.33
2022-12-06T00:36:37.727Z,83.21
2022-12-06T00:40:40.856Z,83.14
2022-12-06T00:44:44.054Z,82.96
2022-12-06T00:48:49.600Z,83.27
2022-12-06T00:52:52.563Z,83.63
2022-12-06T00:56:55.575Z,83.75
2022-12-06T01:01:09.172Z,83.67
2022-12-06T01:05:13.808Z,83.91
2022-12-06T01:09:16.764Z,83.48
2022-12-06T01:13:19.970Z,83.93
2022-12-06T01:17:22.985Z,83.96
2022-12-06T01:21:28.846Z,83.82
2022-12-06T01:25:35.784Z,83.62
2022-12-06T01:29:39.528Z,83.45
2022-12-06T01:33:42.952Z,83.31
2022-12-06T01:37:47.312Z,83.24
2022-12-06T01:41:50.476Z,83.46
2022-12-06T01:45:53.774Z,83.46
2022-12-06T01:50:02.323Z,83.13
2022-12-06T01:54:11.926Z,83.15
2022-12-06T01:58:20.226Z,83.00
2022-12-06T02:02:23.540Z,83.02
2022-12-06T02:06:26.827Z,82.88
2022-12-06T02:10:31.704Z,83.02
2022-12-06T02:14:35.753Z,83.05
2022-12-06T02:18:46.690Z,83.05
2022-12-06T02:23:13.831Z,82.72
2022-12-06T02:27:52.940Z,82.57
2022-12-06T02:32:00.743Z,82.45
2022-12-06T02:36:08.622Z,82.22
2022-12-06T02:40:15.856Z,82.20
2022-12-06T02:44:25.332Z,81.93
2022-12-06T02:48:29.940Z,81.90
2022-12-06T02:52:33.522Z,81.75
2022-12-06T02:56:36.800Z,81.86
2022-12-06T03:00:41.940Z,82.07
2022-12-06T03:05:01.652Z,82.48
2022-12-06T03:09:15.032Z,82.18
2022-12-06T03:13:23.077Z,82.35
2022-12-06T03:17:35.139Z,82.22
2022-12-06T03:21:46.088Z,81.96
2022-12-06T03:25:51.576Z,81.98
2022-12-06T03:30:00.742Z,82.14
2022-12-06T03:34:11.835Z,82.23
2022-12-06T03:38:20.843Z,81.96
2022-12-06T03:42:23.832Z,82.02
2022-12-06T03:46:31.049Z,82.13
2022-12-06T03:50:39.347Z,81.91
2022-12-06T03:54:43.747Z,82.12
2022-12-06T03:58:46.752Z,81.96
2022-12-06T04:02:49.743Z,81.67
2022-12-06T04:06:53.357Z,81.64
2022-12-06T04:10:57.751Z,81.58
2022-12-06T04:15:00.740Z,81.33
2022-12-06T04:19:03.731Z,81.70
2022-12-06T04:23:05.727Z,81.55
2022-12-06T04:27:27.612Z,81.70
2022-12-06T04:31:48.518Z,81.64
2022-12-06T04:36:08.721Z,81.45
2022-12-06T04:40:12.709Z,81.52
2022-12-06T04:44:17.344Z,81.46
2022-12-06T04:48:20.572Z,81.54
2022-12-06T04:52:23.771Z,81.37
2022-12-06T04:56:26.777Z,81.51
2022-12-06T05:00:31.185Z,81.09
2022-12-06T05:04:34.790Z,80.87
2022-12-06T05:08:37.790Z,80.72
2022-12-06T05:12:40.972Z,81.07
2022-12-06T05:16:45.368Z,80.84
2022-12-06T05:20:48.570Z,80.49
2022-12-06T05:24:51.814Z,80.63
2022-12-06T05:28:54.924Z,80.38
2022-12-06T05:32:59.322Z,80.31
2022-12-06T05:37:02.600Z,80.31
2022-12-06T05:41:06.578Z,80.33
2022-12-06T05:45:11.051Z,80.02
2022-12-06T05:49:15.761Z,79.79
2022-12-06T05:53:18.952Z,79.57
2022-12-06T05:57:22.112Z,79.51
2022-12-06T06:01:25.065Z,79.38
2022-12-06T06:05:30.310Z,78.94
2022-12-06T06:09:33.483Z,78.57
2022-12-06T06:13:36.434Z,78.30
2022-12-06T06:17:39.744Z,78.02
2022-12-06T06:21:44.090Z,78.30
2022-12-06T06:25:47.246Z,78.40
2022-12-06T06:29:50.220Z,78.00
2022-12-06T06:33:53.174Z,78.04
2022-12-06T06:37:57.672Z,77.97
2022-12-06T06:42:00.666Z,77.82
2022-12-06T06:46:06.423Z,78.10
2022-12-06T06:50:10.199Z,77.94
2022-12-06T06:54:15.413Z,78.08
2022-12-06T06:58:18.347Z,78.03
2022-12-06T07:02:21.377Z,77.56
2022-12-06T07:06:24.445Z,77.66
2022-12-06T07:10:28.814Z,77.67
2022-12-06T07:14:31.987Z,77.43
2022-12-06T07:18:35.736Z,77.82
2022-12-06T07:22:38.711Z,77.95
2022-12-06T07:26:43.039Z,78.22
2022-12-06T07:30:46.000Z,78.10
2022-12-06T07:34:48.954Z,78.20
2022-12-06T07:38:53.983Z,78.47
2022-12-06T07:43:15.595Z,78.39
2022-12-06T07:47:18.539Z,78.30
2022-12-06T07:51:21.495Z,78.72
2022-12-06T07:55:24.451Z,78.75
2022-12-06T07:59:28.883Z,79.02
2022-12-06T08:03:32.145Z,78.97
2022-12-06T08:07:35.191Z,79.09
2022-12-06T08:11:38.196Z,79.12
2022-12-06T08:15:42.704Z,79.22
2022-12-06T08:19:46.969Z,79.00
2022-12-06T08:23:50.110Z,79.09
2022-12-06T08:27:53.071Z,79.10
2022-12-06T08:32:21.267Z,79.13
2022-12-06T08:36:25.600Z,79.12
2022-12-06T08:40:28.679Z,79.14
2022-12-06T08:44:33.545Z,79.57
2022-12-06T08:48:42.780Z,79.86
2022-12-06T08:52:46.625Z,79.68
2022-12-06T08:56:50.164Z,79.83
2022-12-06T09:00:53.182Z,79.84
2022-12-06T09:04:57.566Z,79.93
2022-12-06T09:09:00.573Z,79.83
2022-12-06T09:13:03.727Z,79.89
2022-12-06T09:17:07.380Z,80.04
2022-12-06T09:21:17.382Z,80.09
2022-12-06T09:25:20.362Z,80.13
2022-12-06T09:29:24.033Z,80.22
2022-12-06T09:33:27.086Z,80.32
2022-12-06T09:37:31.597Z,80.26
2022-12-06T09:42:15.860Z,80.12
2022-12-06T09:46:48.636Z,80.49
2022-12-06T09:51:03.731Z,80.27
2022-12-06T09:55:20.061Z,80.33
2022-12-06T09:59:33.307Z,80.35
2022-12-06T10:03:54.803Z,80.35
2022-12-06T10:08:08.807Z,80.25
2022-12-06T10:12:26.563Z,79.94
2022-12-06T10:16:40.310Z,80.16
2022-12-06T10:20:51.207Z,80.30
2022-12-06T10:25:04.883Z,80.25
2022-12-06T10:29:23.170Z,79.70
2022-12-06T10:33:47.286Z,79.49
2022-12-06T10:38:04.048Z,79.04
2022-12-06T10:42:13.074Z,78.66
2022-12-06T10:46:42.211Z,78.76
2022-12-06T10:50:48.719Z,78.70
2022-12-06T10:54:59.893Z,78.68
2022-12-06T10:59:20.566Z,78.56
2022-12-06T11:03:32.440Z,78.64
2022-12-06T11:07:41.919Z,78.72
2022-12-06T11:11:46.314Z,78.58
2022-12-06T11:15:54.316Z,78.28
2022-12-06T11:20:04.128Z,78.48
2022-12-06T11:24:15.539Z,78.24
2022-12-06T11:28:32.881Z,77.11
2022-12-06T11:32:36.006Z,77.47
2022-12-06T11:36:40.908Z,76.68
2022-12-06T11:40:46.855Z,77.32
2022-12-06T11:44:55.109Z,77.03
2022-12-06T11:49:07.863Z,76.78
2022-12-06T11:53:21.367Z,76.65
2022-12-06T11:57:29.267Z,76.23
2022-12-06T12:01:40.926Z,76.00
2022-12-06T12:05:43.927Z,76.50
2022-12-06T12:09:54.227Z,76.62
2022-12-06T12:14:00.547Z,75.58
2022-12-06T12:18:05.356Z,75.37
2022-12-06T12:22:31.827Z,75.36
2022-12-06T12:26:42.275Z,75.00
2022-12-06T12:30:54.432Z,75.36
2022-12-06T12:34:57.910Z,75.52
2022-12-06T12:39:01.861Z,75.16
2022-12-06T12:43:08.767Z,75.21
2022-12-06T12:47:18.920Z,75.42
2022-12-06T12:51:29.402Z,75.73
2022-12-06T12:55:32.956Z,75.98
2022-12-06T12:59:41.212Z,76.29
2022-12-06T13:03:52.067Z,76.28
2022-12-06T13:08:00.386Z,76.20
2022-12-06T13:12:08.503Z,76.25
2022-12-06T13:16:16.171Z,75.75
2022-12-06T13:20:25.756Z,75.79
2022-12-06T13:24:31.862Z,75.74
2022-12-06T13:28:41.556Z,75.91
2022-12-06T13:32:51.062Z,75.51
2022-12-06T13:36:54.244Z,74.92
2022-12-06T13:40:58.051Z,74.48
2022-12-06T13:45:02.093Z,74.19
2022-12-06T13:49:25.757Z,73.65
2022-12-06T13:53:33.814Z,73.23
2022-12-06T13:57:37.088Z,73.11
2022-12-06T14:01:44.951Z,73.10
2022-12-06T14:06:13.894Z,72.95
2022-12-06T14:10:17.591Z,72.92
2022-12-06T14:14:22.736Z,73.24
2022-12-06T14:18:28.592Z,72.49
2022-12-06T14:22:36.777Z,73.55
2022-12-06T14:26:39.762Z,72.48
2022-12-06T14:30:44.452Z,71.13
2022-12-06T14:34:48.665Z,70.39
2022-12-06T14:38:56.694Z,69.96
2022-12-06T14:43:03.651Z,70.12
2022-12-06T14:47:08.780Z,69.60
2022-12-06T14:51:24.219Z,69.48
2022-12-06T14:55:30.721Z,69.20
2022-12-06T15:00:12.839Z,69.09
2022-12-06T15:04:01.765Z,69.07
2022-12-06T15:08:34.107Z,68.99
2022-12-06T15:12:56.826Z,68.50
2022-12-06T15:17:02.819Z,68.37
2022-12-06T15:21:12.913Z,68.50
2022-12-06T15:25:16.405Z,68.51
2022-12-06T15:29:21.000Z,68.85
2022-12-06T15:33:27.383Z,68.85
2022-12-06T15:37:38.576Z,68.75
2022-12-06T15:41:43.137Z,68.45
2022-12-06T15:45:47.693Z,68.58
2022-12-06T15:49:51.806Z,68.55
2022-12-06T15:53:56.264Z,68.74
2022-12-06T15:57:59.205Z,69.03
2022-12-06T16:02:03.629Z,69.40
2022-12-06T16:06:06.979Z,68.97
2022-12-06T16:10:10.444Z,68.85
2022-12-06T16:14:13.408Z,68.47
2022-12-06T16:18:17.789Z,68.32
2022-12-06T16:22:40.885Z,68.48
2022-12-06T16:26:45.677Z,68.71
2022-12-06T16:30:48.978Z,68.75
2022-12-06T16:34:54.604Z,69.01
2022-12-06T16:39:02.175Z,69.16
2022-12-06T16:43:05.664Z,69.19
2022-12-06T16:47:09.015Z,69.81
2022-12-06T16:51:12.005Z,69.75
2022-12-06T16:55:16.376Z,70.09
2022-12-06T16:59:19.498Z,70.11
2022-12-06T17:03:22.885Z,70.40
2022-12-06T17:07:26.109Z,70.51
2022-12-06T17:11:50.334Z,70.64
2022-12-06T17:15:53.372Z,70.45
2022-12-06T17:19:57.244Z,70.58
2022-12-06T17:24:01.684Z,70.54
2022-12-06T17:28:06.545Z,70.35
2022-12-06T17:32:10.697Z,70.49
2022-12-06T17:36:14.941Z,70.49
2022-12-06T17:40:17.922Z,70.77
2022-12-06T17:44:22.670Z,70.93
2022-12-06T17:48:26.444Z,70.99
2022-12-06T17:52:31.613Z,71.12
2022-12-06T17:56:37.252Z,70.86
2022-12-06T18:00:41.602Z,71.01
2022-12-06T18:04:45.009Z,71.17
2022-12-06T18:08:48.270Z,71.31
2022-12-06T18:12:51.212Z,70.81
2022-12-06T18:16:55.812Z,70.82
2022-12-06T18:20:58.932Z,70.91
2022-12-06T18:25:02.157Z,70.72
2022-12-06T18:29:07.306Z,70.65
2022-12-06T18:33:14.934Z,70.68
2022-12-06T18:37:20.560Z,70.63
2022-12-06T18:41:23.598Z,71.11
2022-12-06T18:45:26.797Z,71.08
2022-12-06T18:49:33.204Z,71.09
2022-12-06T18:53:37.042Z,71.27
2022-12-06T18:57:43.347Z,70.99
2022-12-06T19:01:46.350Z,71.04
2022-12-06T19:06:05.450Z,70.69
2022-12-06T19:10:09.743Z,70.87
2022-12-06T19:14:13.371Z,70.92
2022-12-06T19:18:16.740Z,70.86
2022-12-06T19:22:21.096Z,70.92
2022-12-06T19:26:25.843Z,71.15
2022-12-06T19:30:29.649Z,70.99
2022-12-06T19:34:32.901Z,71.21
2022-12-06T19:38:37.417Z,71.20
2022-12-06T19:42:58.041Z,71.22
2022-12-06T19:47:01.216Z,70.69
2022-12-06T19:51:04.763Z,70.91
2022-12-06T19:55:09.724Z,71.03
2022-12-06T19:59:12.891Z,70.77
2022-12-06T20:03:15.833Z,70.72
2022-12-06T20:07:18.832Z,70.83
2022-12-06T20:11:42.010Z,70.89
2022-12-06T20:15:45.290Z,70.92
2022-12-06T20:19:49.335Z,71.12
2022-12-06T20:23:53.241Z,71.14
2022-12-06T20:28:02.262Z,71.07
2022-12-06T20:32:05.645Z,70.58
2022-12-06T20:36:12.934Z,70.31
2022-12-06T20:40:17.006Z,70.13
2022-12-06T20:44:24.465Z,69.98
2022-12-06T20:48:28.234Z,69.72
2022-12-06T20:52:31.344Z,70.04
2022-12-06T20:56:37.185Z,70.10
2022-12-06T21:00:42.896Z,69.69
2022-12-06T21:04:45.863Z,69.42
2022-12-06T21:08:49.152Z,69.26
2022-12-06T21:12:52.051Z,69.41
2022-12-06T21:16:56.416Z,69.37
2022-12-06T21:20:59.645Z,69.54
2022-12-06T21:25:02.694Z,69.76
2022-12-06T21:29:06.097Z,69.91
2022-12-06T21:33:12.489Z,70.40
2022-12-06T21:37:15.933Z,70.45
2022-12-06T21:41:19.348Z,70.74
2022-12-06T21:45:22.414Z,70.91
2022-12-06T21:49:27.351Z,71.14
2022-12-06T21:53:31.140Z,71.17
2022-12-06T21:57:35.243Z,71.76
2022-12-06T22:01:38.855Z,71.94
2022-12-06T22:05:44.137Z,72.28
2022-12-06T22:09:47.245Z,72.59
2022-12-06T22:13:50.500Z,72.51
2022-12-06T22:17:53.448Z,72.61
2022-12-06T22:21:58.387Z,72.79
2022-12-06T22:26:06.122Z,73.06
2022-12-06T22:30:10.814Z,73.14
2022-12-06T22:34:13.837Z,73.14
2022-12-06T22:38:18.211Z,72.84
2022-12-06T22:42:21.128Z,72.97
2022-12-06T22:46:26.437Z,72.84
2022-12-06T22:50:29.660Z,73.00
2022-12-06T22:54:34.231Z,73.28
2022-12-06T22:58:37.833Z,73.17
